Wetterdaten: Woche 04.02.02 - 10.02.02 (KW6)
Datum Zeit Temperatur Luftfeuchte Luftdruck Regenmenge Wind Richtung Taupunkt Windchill
04.02.2002 00:00 -0.0 C 93 % 1023.5 hPa 0.0 l/m 2.9 km/h (1 Bft) O-SO -1.1 C -0.9 C
04.02.2002 01:00 -0.1 C 94 % 1024.1 hPa 0.0 l/m 0.9 km/h (0 Bft) O-SO -1.0 C -0.4 C
04.02.2002 02:00 -0.1 C 94 % 1024.8 hPa 0.0 l/m 2.2 km/h (1 Bft) O-SO -1.0 C -0.8 C
04.02.2002 03:00 0.9 C 92 % 1026.0 hPa 0.0 l/m 2.3 km/h (1 Bft) O-SO -0.3 C 0.5 C
04.02.2002 04:00 5.2 C 82 % 1026.2 hPa 0.0 l/m 8.4 km/h (2 Bft) W-NW 2.3 C 3.8 C
04.02.2002 05:00 8.1 C 65 % 1026.5 hPa 0.0 l/m 19.8 km/h (3 Bft) W-NW 1.8 C 5.1 C
04.02.2002 06:00 6.3 C 72 % 1027.2 hPa 0.0 l/m 8.6 km/h (2 Bft) O-SO 1.6 C 4.6 C
04.02.2002 07:00 6.1 C 78 % 1028.2 hPa 0.0 l/m 2.6 km/h (1 Bft) SO 2.5 C 5.7 C
04.02.2002 08:00 5.2 C 85 % 1028.3 hPa 0.0 l/m 6.6 km/h (2 Bft) SO 2.9 C 3.8 C
04.02.2002 09:00 6.3 C 78 % 1028.9 hPa 0.0 l/m 5.5 km/h (1 Bft) SO 2.7 C 5.3 C
04.02.2002 10:00 7.7 C 68 % 1029.3 hPa 0.0 l/m 5.8 km/h (2 Bft) O-SO 2.1 C 6.7 C
04.02.2002 11:00 9.0 C 62 % 1029.2 hPa 0.0 l/m 4.3 km/h (1 Bft) O-SO 1.9 C 8.5 C
04.02.2002 12:00 10.8 C 54 % 1028.1 hPa 0.0 l/m 7.0 km/h (2 Bft) SO 1.8 C 10.8 C
04.02.2002 13:00 11.4 C 52 % 1027.2 hPa 0.0 l/m 5.9 km/h (2 Bft) O-SO 1.8 C 11.4 C
04.02.2002 14:00 11.8 C 55 % 1026.3 hPa 0.0 l/m 10.5 km/h (2 Bft) SO 3.1 C 11.8 C
04.02.2002 15:00 11.5 C 54 % 1025.5 hPa 0.0 l/m 5.7 km/h (1 Bft) SO 2.6 C 11.5 C
04.02.2002 16:00 10.6 C 57 % 1025.1 hPa 0.0 l/m 2.7 km/h (1 Bft) O-SO 2.5 C 10.6 C
04.02.2002 17:00 8.2 C 67 % 1025.1 hPa 0.0 l/m 2.5 km/h (1 Bft) SO 2.3 C 7.9 C
04.02.2002 18:00 5.8 C 75 % 1025.1 hPa 0.0 l/m 6.8 km/h (2 Bft) O-SO 1.8 C 4.4 C
04.02.2002 19:00 4.4 C 81 % 1025.1 hPa 0.0 l/m 4.3 km/h (1 Bft) O-SO 1.3 C 3.6 C
04.02.2002 20:00 2.7 C 88 % 1025.1 hPa 0.0 l/m 1.5 km/h (1 Bft) O-SO 0.9 C 2.6 C
04.02.2002 21:00 1.9 C 91 % 1025.1 hPa 0.0 l/m 0.5 km/h (0 Bft) O-SO 0.5 C 1.9 C
04.02.2002 22:00 1.3 C 91 % 1025.1 hPa 0.0 l/m 0.4 km/h (0 Bft) O-SO 0.0 C 1.3 C
04.02.2002 23:00 1.6 C 92 % 1025.0 hPa 0.0 l/m 0.0 km/h (0 Bft) N 0.5 C 1.6 C
05.02.2002 00:00 2.0 C 92 % 1024.1 hPa 0.0 l/m 0.1 km/h (0 Bft) N 0.9 C 2.0 C
05.02.2002 01:00 2.9 C 92 % 1023.5 hPa 0.0 l/m 0.3 km/h (0 Bft) O-SO 1.7 C 2.9 C
05.02.2002 02:00 2.7 C 92 % 1023.0 hPa 0.0 l/m 0.2 km/h (0 Bft) O-NO 1.4 C 2.7 C
05.02.2002 03:00 2.7 C 91 % 1022.5 hPa 0.0 l/m 0.4 km/h (0 Bft) SO 1.5 C 2.7 C
05.02.2002 04:00 3.9 C 85 % 1022.0 hPa 0.0 l/m 0.8 km/h (0 Bft) O-SO 1.6 C 3.8 C
05.02.2002 05:00 3.2 C 86 % 1021.8 hPa 0.0 l/m 0.5 km/h (0 Bft) O-NO 1.1 C 3.1 C
05.02.2002 06:00 3.8 C 86 % 1020.9 hPa 0.0 l/m 0.8 km/h (0 Bft) SO 1.6 C 3.6 C
05.02.2002 07:00 6.2 C 81 % 1020.7 hPa 0.0 l/m 5.4 km/h (1 Bft) S 3.3 C 5.2 C
05.02.2002 08:00 6.8 C 77 % 1019.9 hPa 0.0 l/m 2.8 km/h (1 Bft) SO 3.0 C 6.3 C
05.02.2002 09:00 7.8 C 69 % 1019.6 hPa 0.0 l/m 4.5 km/h (1 Bft) SO 2.5 C 7.2 C
05.02.2002 10:00 9.0 C 60 % 1018.9 hPa 0.0 l/m 4.4 km/h (1 Bft) O-SO 1.6 C 8.5 C
05.02.2002 11:00 9.7 C 57 % 1017.9 hPa 0.0 l/m 7.3 km/h (2 Bft) SO 1.5 C 9.1 C
05.02.2002 12:00 10.8 C 53 % 1016.7 hPa 0.0 l/m 8.5 km/h (2 Bft) SO 1.4 C 10.8 C
05.02.2002 13:00 11.2 C 50 % 1015.0 hPa 0.0 l/m 8.7 km/h (2 Bft) SO 1.1 C 11.2 C
05.02.2002 14:00 11.6 C 46 % 1013.2 hPa 0.0 l/m 8.8 km/h (2 Bft) SO 0.4 C 11.6 C
05.02.2002 15:00 11.3 C 45 % 1012.6 hPa 0.0 l/m 7.6 km/h (2 Bft) SO -0.1 C 11.3 C
05.02.2002 16:00 10.7 C 49 % 1011.4 hPa 0.0 l/m 9.3 km/h (2 Bft) SO 0.5 C 10.7 C
05.02.2002 17:00 10.1 C 54 % 1010.5 hPa 0.0 l/m 10.0 km/h (2 Bft) SO 1.2 C 9.5 C
05.02.2002 18:00 8.8 C 62 % 1010.5 hPa 0.0 l/m 2.9 km/h (1 Bft) O-SO 1.9 C 8.4 C
05.02.2002 19:00 8.6 C 61 % 1010.4 hPa 0.0 l/m 6.6 km/h (2 Bft) O-SO 1.4 C 7.6 C
05.02.2002 20:00 7.7 C 66 % 1009.7 hPa 0.0 l/m 2.1 km/h (1 Bft) O-SO 1.8 C 7.5 C
05.02.2002 21:00 6.9 C 79 % 1010.5 hPa 0.0 l/m 1.6 km/h (1 Bft) O 3.5 C 6.7 C
05.02.2002 22:00 7.3 C 87 % 1010.5 hPa 1.2 l/m 1.9 km/h (1 Bft) SO 5.3 C 7.1 C
05.02.2002 23:00 7.0 C 90 % 1010.0 hPa 0.3 l/m 1.2 km/h (1 Bft) SO 5.6 C 6.9 C
06.02.2002 00:00 6.6 C 91 % 1009.4 hPa 0.6 l/m 5.0 km/h (1 Bft) SO 5.3 C 5.7 C
06.02.2002 01:00 6.4 C 90 % 1009.4 hPa 0.0 l/m 8.5 km/h (2 Bft) SO 5.0 C 4.9 C
06.02.2002 02:00 6.5 C 87 % 1009.3 hPa 0.3 l/m 9.5 km/h (2 Bft) SO 4.5 C 4.7 C
06.02.2002 03:00 6.3 C 89 % 1008.4 hPa 0.0 l/m 4.5 km/h (1 Bft) SO 4.6 C 5.4 C
06.02.2002 04:00 6.0 C 91 % 1007.6 hPa 0.3 l/m 0.9 km/h (0 Bft) SW 4.7 C 5.9 C
06.02.2002 05:00 5.8 C 92 % 1007.3 hPa 0.0 l/m 1.7 km/h (1 Bft) O-SO 4.6 C 5.6 C
06.02.2002 06:00 5.7 C 93 % 1006.4 hPa 0.3 l/m 3.5 km/h (1 Bft) O-SO 4.6 C 5.2 C
06.02.2002 07:00 5.6 C 93 % 1006.5 hPa 1.2 l/m 2.8 km/h (1 Bft) W-NW 4.5 C 5.1 C
06.02.2002 08:00 4.9 C 91 % 1007.3 hPa 0.6 l/m 6.9 km/h (2 Bft) W-NW 3.6 C 3.5 C
06.02.2002 09:00 5.2 C 89 % 1007.3 hPa 0.6 l/m 1.5 km/h (1 Bft) SO 3.6 C 5.1 C
06.02.2002 10:00 5.4 C 88 % 1007.8 hPa 0.9 l/m 3.2 km/h (1 Bft) SO 3.6 C 4.9 C
06.02.2002 11:00 5.3 C 87 % 1008.4 hPa 0.9 l/m 4.3 km/h (1 Bft) S-SO 3.4 C 4.6 C
06.02.2002 12:00 4.6 C 87 % 1008.4 hPa 0.9 l/m 9.1 km/h (2 Bft) S-SO 2.7 C 2.5 C
06.02.2002 13:00 4.5 C 88 % 1008.4 hPa 0.3 l/m 6.6 km/h (2 Bft) SO 2.7 C 3.1 C
06.02.2002 14:00 4.4 C 89 % 1008.4 hPa 0.6 l/m 7.4 km/h (2 Bft) SO 2.7 C 2.7 C
06.02.2002 15:00 4.3 C 89 % 1008.4 hPa 0.6 l/m 6.6 km/h (2 Bft) SO 2.6 C 2.9 C
06.02.2002 16:00 4.2 C 91 % 1008.4 hPa 0.6 l/m 3.5 km/h (1 Bft) SO 2.8 C 3.5 C
06.02.2002 17:00 4.1 C 92 % 1009.3 hPa 0.9 l/m 0.5 km/h (0 Bft) O-SO 2.8 C 4.1 C
06.02.2002 18:00 4.0 C 93 % 1010.0 hPa 1.8 l/m 0.6 km/h (0 Bft) SO 3.0 C 4.0 C
06.02.2002 19:00 3.8 C 94 % 1010.5 hPa 0.6 l/m 1.2 km/h (1 Bft) SO 2.9 C 3.7 C
06.02.2002 20:00 3.5 C 94 % 1011.5 hPa 0.0 l/m 0.4 km/h (0 Bft) O-SO 2.7 C 3.5 C
06.02.2002 21:00 3.1 C 95 % 1012.3 hPa 0.0 l/m 0.5 km/h (0 Bft) O-SO 2.3 C 3.0 C
06.02.2002 22:00 3.0 C 95 % 1013.3 hPa 0.0 l/m 0.6 km/h (0 Bft) O-SO 2.2 C 2.9 C
06.02.2002 23:00 3.2 C 94 % 1014.0 hPa 0.0 l/m 3.2 km/h (1 Bft) O-SO 2.4 C 2.5 C
07.02.2002 00:00 3.0 C 93 % 1014.8 hPa 0.0 l/m 2.5 km/h (1 Bft) O-SO 2.0 C 2.5 C
07.02.2002 01:00 2.7 C 93 % 1015.7 hPa 0.0 l/m 1.1 km/h (0 Bft) O-SO 1.6 C 2.5 C
07.02.2002 02:00 2.5 C 94 % 1016.3 hPa 0.3 l/m 4.1 km/h (1 Bft) O-SO 1.6 C 1.7 C
07.02.2002 03:00 2.4 C 94 % 1016.8 hPa 0.0 l/m 2.9 km/h (1 Bft) O-SO 1.4 C 1.9 C
07.02.2002 04:00 2.3 C 94 % 1017.4 hPa 0.0 l/m 1.4 km/h (1 Bft) O-SO 1.5 C 2.3 C
07.02.2002 05:00 2.5 C 94 % 1018.6 hPa 0.0 l/m 0.3 km/h (0 Bft) O-SO 1.6 C 2.5 C
07.02.2002 06:00 2.4 C 94 % 1019.3 hPa 0.0 l/m 1.4 km/h (1 Bft) O-SO 1.5 C 2.2 C
07.02.2002 07:00 2.5 C 94 % 1020.4 hPa 0.0 l/m 0.1 km/h (0 Bft) O-SO 1.6 C 2.5 C
07.02.2002 08:00 2.6 C 94 % 1021.6 hPa 0.0 l/m 1.9 km/h (1 Bft) O-SO 1.7 C 2.3 C
07.02.2002 09:00 3.0 C 92 % 1022.8 hPa 0.0 l/m 0.0 km/h (0 Bft) N 1.9 C 3.0 C
07.02.2002 10:00 4.0 C 86 % 1023.7 hPa 0.0 l/m 0.4 km/h (0 Bft) O-SO 1.9 C 3.9 C
07.02.2002 11:00 5.3 C 73 % 1024.1 hPa 0.0 l/m 0.1 km/h (0 Bft) N-NW 0.9 C 5.3 C
07.02.2002 12:00 6.0 C 66 % 1025.1 hPa 0.0 l/m 0.4 km/h (0 Bft) W 0.2 C 6.0 C
07.02.2002 13:00 7.0 C 63 % 1025.1 hPa 0.0 l/m 0.9 km/h (0 Bft) W-NW 0.5 C 6.9 C
07.02.2002 14:00 7.1 C 60 % 1025.0 hPa 0.0 l/m 1.0 km/h (0 Bft) O-SO -0.1 C 7.0 C
07.02.2002 15:00 7.0 C 59 % 1025.6 hPa 0.0 l/m 0.3 km/h (0 Bft) W -0.6 C 7.0 C
07.02.2002 16:00 6.8 C 61 % 1026.2 hPa 0.0 l/m 0.3 km/h (0 Bft) SO -0.3 C 6.8 C
07.02.2002 17:00 5.2 C 67 % 1026.3 hPa 0.0 l/m 1.9 km/h (1 Bft) O-SO -0.4 C 5.1 C
07.02.2002 18:00 3.9 C 76 % 1027.2 hPa 0.0 l/m 6.5 km/h (2 Bft) O-SO 0.0 C 2.4 C
07.02.2002 19:00 2.8 C 83 % 1027.5 hPa 0.0 l/m 3.4 km/h (1 Bft) O-SO 0.2 C 2.2 C
07.02.2002 20:00 2.1 C 88 % 1028.2 hPa 0.0 l/m 3.6 km/h (1 Bft) O-SO 0.3 C 1.3 C
07.02.2002 21:00 1.1 C 90 % 1028.7 hPa 0.0 l/m 1.3 km/h (1 Bft) O-SO -0.3 C 0.7 C
07.02.2002 22:00 1.0 C 94 % 1028.3 hPa 0.0 l/m 5.2 km/h (1 Bft) O-SO 0.2 C -0.4 C
07.02.2002 23:00 0.6 C 94 % 1028.3 hPa 0.0 l/m 1.3 km/h (1 Bft) SO -0.3 C 0.5 C
08.02.2002 00:00 0.6 C 95 % 1028.3 hPa 0.0 l/m 3.2 km/h (1 Bft) O-SO -0.1 C -0.1 C
08.02.2002 01:00 1.4 C 95 % 1028.3 hPa 0.0 l/m 2.3 km/h (1 Bft) SO 0.7 C 0.9 C
08.02.2002 02:00 2.0 C 95 % 1028.3 hPa 0.0 l/m 6.2 km/h (2 Bft) SO 1.2 C 0.4 C
08.02.2002 03:00 2.2 C 92 % 1028.3 hPa 0.0 l/m 8.9 km/h (2 Bft) SO 1.1 C -0.2 C
08.02.2002 04:00 2.6 C 89 % 1028.3 hPa 0.0 l/m 4.1 km/h (1 Bft) S 1.0 C 1.8 C
08.02.2002 05:00 2.9 C 86 % 1028.3 hPa 0.0 l/m 4.3 km/h (1 Bft) SO 0.7 C 1.9 C
08.02.2002 06:00 2.9 C 85 % 1028.9 hPa 0.0 l/m 4.7 km/h (1 Bft) SO 0.7 C 2.1 C
08.02.2002 07:00 3.0 C 86 % 1029.3 hPa 0.0 l/m 2.4 km/h (1 Bft) SO 0.8 C 2.6 C
08.02.2002 08:00 3.2 C 84 % 1030.0 hPa 0.0 l/m 4.1 km/h (1 Bft) SO 0.8 C 2.3 C
08.02.2002 09:00 3.1 C 86 % 1030.4 hPa 0.6 l/m 1.4 km/h (1 Bft) S 0.9 C 3.0 C
08.02.2002 10:00 3.6 C 87 % 1030.4 hPa 0.0 l/m 1.7 km/h (1 Bft) S 1.5 C 3.3 C
08.02.2002 11:00 3.9 C 85 % 1030.4 hPa 0.3 l/m 3.8 km/h (1 Bft) SO 1.6 C 3.2 C
08.02.2002 12:00 4.3 C 84 % 1030.1 hPa 0.0 l/m 2.8 km/h (1 Bft) O-SO 1.8 C 3.9 C
08.02.2002 13:00 5.0 C 80 % 1029.3 hPa 0.0 l/m 5.7 km/h (1 Bft) S 1.9 C 3.9 C
08.02.2002 14:00 5.4 C 79 % 1028.5 hPa 0.0 l/m 4.6 km/h (1 Bft) S 2.0 C 4.7 C
08.02.2002 15:00 5.4 C 78 % 1028.3 hPa 0.0 l/m 3.8 km/h (1 Bft) S 2.0 C 4.9 C
08.02.2002 16:00 5.4 C 79 % 1028.3 hPa 0.0 l/m 6.6 km/h (2 Bft) SO 2.0 C 4.1 C
08.02.2002 17:00 5.4 C 80 % 1028.3 hPa 0.0 l/m 4.3 km/h (1 Bft) O 2.2 C 4.6 C
08.02.2002 18:00 5.4 C 82 % 1028.2 hPa 0.0 l/m 1.6 km/h (1 Bft) SO 2.5 C 5.3 C
08.02.2002 19:00 5.4 C 84 % 1027.2 hPa 0.0 l/m 4.4 km/h (1 Bft) SW 3.0 C 4.6 C
08.02.2002 20:00 5.5 C 86 % 1027.2 hPa 0.0 l/m 3.1 km/h (1 Bft) SO 3.4 C 5.1 C
08.02.2002 21:00 5.6 C 86 % 1027.2 hPa 0.0 l/m 2.0 km/h (1 Bft) S 3.4 C 5.3 C
08.02.2002 22:00 5.5 C 86 % 1026.6 hPa 0.0 l/m 4.8 km/h (1 Bft) O-SO 3.3 C 4.7 C
08.02.2002 23:00 5.3 C 87 % 1026.2 hPa 0.0 l/m 8.8 km/h (2 Bft) S-SO 3.4 C 3.4 C
09.02.2002 00:00 5.5 C 85 % 1026.2 hPa 0.0 l/m 7.9 km/h (2 Bft) S 3.2 C 4.0 C
09.02.2002 01:00 5.5 C 85 % 1025.7 hPa 0.0 l/m 8.3 km/h (2 Bft) SO 3.1 C 3.7 C
09.02.2002 02:00 5.5 C 83 % 1025.1 hPa 0.0 l/m 5.5 km/h (1 Bft) SO 2.8 C 4.4 C
09.02.2002 03:00 5.3 C 88 % 1025.0 hPa 0.0 l/m 5.8 km/h (2 Bft) SO 3.4 C 4.2 C
09.02.2002 04:00 5.3 C 89 % 1024.1 hPa 0.0 l/m 10.7 km/h (2 Bft) SO 3.6 C 2.9 C
09.02.2002 05:00 5.7 C 88 % 1024.1 hPa 0.0 l/m 11.4 km/h (2 Bft) SO 3.8 C 3.3 C
09.02.2002 06:00 5.9 C 83 % 1024.1 hPa 0.0 l/m 15.3 km/h (3 Bft) SO 3.3 C 2.9 C
09.02.2002 07:00 6.0 C 81 % 1024.1 hPa 0.0 l/m 15.9 km/h (3 Bft) SO 2.9 C 2.8 C
09.02.2002 08:00 6.1 C 80 % 1024.1 hPa 0.0 l/m 8.9 km/h (2 Bft) SO 3.0 C 4.4 C
09.02.2002 09:00 6.7 C 78 % 1024.1 hPa 0.0 l/m 11.6 km/h (2 Bft) SO 3.2 C 4.6 C
09.02.2002 10:00 7.9 C 75 % 1023.0 hPa 0.0 l/m 4.1 km/h (1 Bft) SO 3.7 C 7.4 C
09.02.2002 11:00 9.1 C 70 % 1022.2 hPa 0.0 l/m 8.0 km/h (2 Bft) SW 3.8 C 8.0 C
09.02.2002 12:00 10.5 C 66 % 1021.2 hPa 0.0 l/m 12.5 km/h (3 Bft) SO 4.3 C 10.3 C
09.02.2002 13:00 11.0 C 64 % 1019.8 hPa 0.0 l/m 8.0 km/h (2 Bft) S 4.5 C 11.0 C
09.02.2002 14:00 10.5 C 65 % 1018.9 hPa 0.0 l/m 5.1 km/h (1 Bft) SO 4.3 C 10.5 C
09.02.2002 15:00 10.3 C 67 % 1018.0 hPa 0.0 l/m 6.2 km/h (2 Bft) SO 4.3 C 10.3 C
09.02.2002 16:00 9.9 C 68 % 1016.6 hPa 0.0 l/m 6.9 km/h (2 Bft) SO 4.3 C 9.3 C
09.02.2002 17:00 9.3 C 73 % 1015.7 hPa 0.0 l/m 8.2 km/h (2 Bft) S 4.8 C 8.2 C
09.02.2002 18:00 9.1 C 75 % 1015.7 hPa 0.0 l/m 8.2 km/h (2 Bft) S 4.8 C 7.9 C
09.02.2002 19:00 9.2 C 72 % 1015.7 hPa 0.0 l/m 10.6 km/h (2 Bft) SO 4.4 C 8.0 C
09.02.2002 20:00 10.0 C 64 % 1015.4 hPa 0.0 l/m 23.9 km/h (4 Bft) W-NW 3.6 C 9.3 C
09.02.2002 21:00 8.7 C 72 % 1014.7 hPa 0.3 l/m 12.9 km/h (3 Bft) W-SW 4.0 C 6.8 C
09.02.2002 22:00 8.5 C 74 % 1014.1 hPa 0.3 l/m 19.3 km/h (3 Bft) W 4.1 C 5.6 C
09.02.2002 23:00 9.2 C 70 % 1013.6 hPa 0.0 l/m 22.9 km/h (4 Bft) W 4.0 C 6.1 C
10.02.2002 00:00 8.3 C 75 % 1013.6 hPa 1.8 l/m 19.4 km/h (3 Bft) W 4.1 C 5.5 C
10.02.2002 01:00 6.5 C 86 % 1014.6 hPa 2.7 l/m 38.3 km/h (5 Bft) W-NW 4.3 C 1.4 C
10.02.2002 02:00 6.0 C 83 % 1015.7 hPa 0.0 l/m 35.1 km/h (5 Bft) W-NW 3.4 C 1.0 C
10.02.2002 03:00 5.8 C 79 % 1016.7 hPa 0.0 l/m 33.2 km/h (5 Bft) W-NW 2.4 C 0.8 C
10.02.2002 04:00 5.4 C 74 % 1017.5 hPa 0.0 l/m 34.6 km/h (5 Bft) W-NW 1.2 C 0.3 C
10.02.2002 05:00 4.8 C 76 % 1017.8 hPa 0.0 l/m 29.4 km/h (5 Bft) W-NW 1.0 C -0.1 C
10.02.2002 06:00 4.7 C 77 % 1018.0 hPa 0.0 l/m 28.1 km/h (4 Bft) W-NW 1.1 C -0.1 C
10.02.2002 07:00 4.0 C 85 % 1018.9 hPa 0.3 l/m 26.6 km/h (4 Bft) W-NW 1.7 C -0.9 C
10.02.2002 08:00 4.7 C 79 % 1018.9 hPa 0.0 l/m 21.9 km/h (4 Bft) W-NW 1.4 C 0.6 C
10.02.2002 09:00 6.1 C 65 % 1018.9 hPa 0.0 l/m 32.2 km/h (5 Bft) W-NW 0.1 C 1.4 C
10.02.2002 10:00 7.0 C 53 % 1018.9 hPa 0.0 l/m 30.7 km/h (5 Bft) W-NW -1.9 C 2.6 C
10.02.2002 11:00 8.0 C 47 % 1018.9 hPa 0.0 l/m 31.7 km/h (5 Bft) W-NW -2.6 C 3.9 C
10.02.2002 12:00 8.5 C 46 % 1018.9 hPa 0.0 l/m 31.8 km/h (5 Bft) W-NW -2.6 C 4.5 C
10.02.2002 13:00 8.0 C 50 % 1019.1 hPa 0.0 l/m 27.6 km/h (4 Bft) W-NW -1.7 C 4.3 C
10.02.2002 14:00 6.0 C 76 % 1019.9 hPa 0.3 l/m 26.5 km/h (4 Bft) W-NW 2.0 C 1.8 C
10.02.2002 15:00 6.3 C 75 % 1019.9 hPa 0.0 l/m 13.2 km/h (3 Bft) W 2.3 C 3.9 C
10.02.2002 16:00 6.2 C 73 % 1020.3 hPa 0.0 l/m 12.4 km/h (3 Bft) S 1.8 C 3.7 C
10.02.2002 17:00 5.9 C 76 % 1021.2 hPa 0.6 l/m 8.8 km/h (2 Bft) S-SO 1.9 C 4.2 C
10.02.2002 18:00 5.3 C 84 % 1021.8 hPa 0.0 l/m 5.8 km/h (2 Bft) S 2.9 C 4.2 C
10.02.2002 19:00 5.8 C 79 % 1022.0 hPa 0.0 l/m 8.8 km/h (2 Bft) S-SO 2.5 C 4.0 C
10.02.2002 20:00 5.9 C 77 % 1022.0 hPa 0.0 l/m 9.8 km/h (2 Bft) S-SW 2.3 C 4.0 C
10.02.2002 21:00 5.3 C 84 % 1023.0 hPa 0.9 l/m 5.7 km/h (1 Bft) SO 2.9 C 4.5 C
10.02.2002 22:00 5.0 C 89 % 1022.2 hPa 0.0 l/m 6.8 km/h (2 Bft) SO 3.3 C 3.5 C
10.02.2002 23:00 5.1 C 87 % 1022.0 hPa 0.0 l/m 3.1 km/h (1 Bft) SO 3.0 C 4.6 C
Min-Datum _ 04.02.02 05.02.02 06.02.02 - 04.02.02 - 10.02.02 04.02.02
_ Min-Zeit 00:48 14:49 06:11 - 00:00 - 11:48 02:51
Minimum _ -0.5 C 44 % 1006.3 hPa - 0.0 km/h (0 Bft) - -3.1 C -3.1 C
Max-Datum _ 04.02.02 08.02.02 08.02.02 10.02.02 10.02.02 - 05.02.02 04.02.02
_ Max-Zeit 14:12 01:16 09:00 00:00 13:42 - 23:19 14:12
Maximum _ 12.0 C 96 % 1030.4 hPa 2.7 l/m 53.8 km/h
W-NW (7 Bft)
- 5.8 C 12.0 C
Durchschnitt _ 5.6 C 79 % 1020.4 hPa #22.0 l/m 7.3 km/h (2 Bft) SO 2.1 C 4.5 C

Durchschnitt Minimum Temp.5.1 C
Durchschnitt Maximum Temp.6.1 C
© Kaiko 2002